Applegate, Michigan
Current Conditions -  °F | °C
As of 2:01 AM on Saturday 01 Nov 2014 (Local Time) from CYZR Reporting Station
Overcast Overcast  
Wind Chill: 29°   Ceiling: 3000
Heat Index: 39°   Visibility: 9mi
Dew Point: 32°   Wind: 23mph
Humidity: 75%   Direction: 30°NNE
Pressure: 30.1"   Gusts: 40mph
Location:  43.36°N, 82.64°W
Report Text: CYZR 010601Z AUTO 03020G35KT 9SM SCT022 BKN030 BKN035 OVC045 04/00 A3010 RMK SLP197
Loading
Personal Weather Stations






























Interactive Weather Map
Tropical Storm Tracking
New forecast layout! Learn more

10-Day Weather Forecast

Advertisements
Track Severe Weather on mobile